Time;durP1;ratioP1;P1;durP2;ratioP2;P2;SDS_P1;SDS_P2;PMS_P1;PMS_P2;Temp;Humidity;BMP_temperature;BMP_pressure;BME280_temperature;BME280_humidity;BME280_pressure;Samples;Min_cycle;Max_cycle;Signal;HPM_P1;HPM_P2
2023/01/17 00:17:12;;;;;;;5.78;2.50;;;;;;;2.87;100.00;97568.56;20773444;28;20481;-70
2023/01/17 01:38:56;;;;;;;9.48;2.85;;;;;;;2.02;100.00;97645.81;20771148;28;20053;-70
2023/01/17 01:48:58;;;;;;;9.63;2.50;;;;;;;1.88;100.00;97634.16;20761466;28;20116;-70
2023/01/17 01:58:59;;;;;;;6.38;2.70;;;;;;;1.86;100.00;97623.84;20773265;28;20056;-70
2023/01/17 02:09:00;;;;;;;9.73;2.90;;;;;;;1.82;100.00;97613.66;20761492;28;20053;-70
2023/01/17 02:19:02;;;;;;;7.05;2.80;;;;;;;2.12;100.00;97630.94;20773006;28;20734;-68
2023/01/17 02:29:05;;;;;;;6.93;2.50;;;;;;;2.32;100.00;97638.16;20758173;28;20080;-69
2023/01/17 02:39:07;;;;;;;9.50;2.50;;;;;;;2.35;100.00;97644.94;20766959;28;20057;-70
2023/01/17 02:49:08;;;;;;;6.95;2.50;;;;;;;2.28;100.00;97641.69;20762112;28;20053;-69
2023/01/17 02:59:09;;;;;;;7.07;2.55;;;;;;;2.04;100.00;97640.63;20765923;28;20053;-69
2023/01/17 03:09:10;;;;;;;6.05;2.05;;;;;;;1.96;100.00;97645.13;20765202;28;20058;-69
2023/01/17 03:19:13;;;;;;;6.15;2.33;;;;;;;2.04;100.00;97643.19;20765911;28;20057;-69
2023/01/17 03:29:15;;;;;;;7.43;2.42;;;;;;;2.07;100.00;97661.19;20762642;28;20449;-69
2023/01/17 03:39:16;;;;;;;6.68;3.00;;;;;;;2.01;100.00;97667.38;20775588;28;20069;-69
2023/01/17 03:49:18;;;;;;;7.45;3.38;;;;;;;1.89;100.00;97667.66;20782960;28;20072;-69
2023/01/17 03:59:19;;;;;;;4.97;2.40;;;;;;;1.83;100.00;97677.28;20772747;28;20503;-69
2023/01/17 04:09:20;;;;;;;7.13;2.78;;;;;;;2.08;100.00;97683.53;20785616;28;20045;-70
2023/01/17 04:19:21;;;;;;;11.13;3.10;;;;;;;2.15;100.00;97668.72;20770606;28;20513;-69
2023/01/17 04:29:23;;;;;;;5.63;2.20;;;;;;;2.23;100.00;97657.31;20780415;28;20116;-70
2023/01/17 04:39:24;;;;;;;9.23;2.33;;;;;;;2.16;100.00;97655.78;20771338;28;20053;-70
2023/01/17 04:49:25;;;;;;;6.05;2.10;;;;;;;2.15;100.00;97654.06;20778377;28;20133;-70
2023/01/17 04:59:27;;;;;;;7.70;2.70;;;;;;;2.14;100.00;97649.81;20772383;28;20065;-70
2023/01/17 05:09:28;;;;;;;8.73;2.47;;;;;;;2.05;100.00;97637.13;20773339;28;20066;-69
2023/01/17 05:19:29;;;;;;;6.10;2.45;;;;;;;2.00;100.00;97639.00;20775960;28;20058;-70
2023/01/17 05:29:31;;;;;;;7.28;3.05;;;;;;;1.99;100.00;97647.63;20770870;28;20054;-69
2023/01/17 05:39:32;;;;;;;5.72;2.20;;;;;;;1.97;100.00;97639.09;20773394;28;20057;-69
2023/01/17 05:49:33;;;;;;;7.38;2.88;;;;;;;1.96;100.00;97643.38;20766160;28;20501;-69
2023/01/17 05:59:34;;;;;;;8.10;3.80;;;;;;;1.85;100.00;97626.50;20774480;28;20099;-70
2023/01/17 06:09:37;;;;;;;11.85;4.85;;;;;;;1.75;100.00;97605.25;20762488;28;20142;-69
2023/01/17 06:19:39;;;;;;;23.95;11.50;;;;;;;1.82;100.00;97613.66;20775512;28;20398;-69
2023/01/17 06:29:40;;;;;;;23.40;11.25;;;;;;;2.06;100.00;97615.63;20753039;28;20524;-71
2023/01/17 06:39:41;;;;;;;11.82;4.20;;;;;;;2.00;100.00;97613.19;20770366;28;20049;-71
2023/01/17 06:49:43;;;;;;;7.35;3.40;;;;;;;1.96;100.00;97609.00;20764047;28;20085;-70
2023/01/17 06:59:44;;;;;;;9.43;4.68;;;;;;;1.95;100.00;97609.88;20767896;28;20057;-71
2023/01/17 07:09:45;;;;;;;8.00;3.20;;;;;;;1.96;100.00;97609.00;20764158;28;20056;-70
2023/01/17 07:19:46;;;;;;;8.73;3.83;;;;;;;2.02;100.00;97601.09;20765259;28;20116;-70
2023/01/17 07:29:48;;;;;;;7.97;3.95;;;;;;;2.10;100.00;97573.34;20766277;28;20080;-70
2023/01/17 07:39:49;;;;;;;10.43;5.10;;;;;;;2.19;100.00;97575.69;20761045;28;20053;-72
2023/01/17 07:49:51;;;;;;;10.15;4.85;;;;;;;2.19;100.00;97587.75;20766953;28;20061;-72
2023/01/17 07:59:52;;;;;;;9.85;4.13;;;;;;;2.20;100.00;97574.78;20757334;28;20200;-71
2023/01/17 08:09:54;;;;;;;6.25;3.25;;;;;;;2.23;100.00;97559.22;20764449;28;20521;-71
2023/01/17 08:19:55;;;;;;;22.55;8.73;;;;;;;2.29;100.00;97561.63;20778492;28;20052;-71
2023/01/17 08:29:56;;;;;;;19.33;5.82;;;;;;;2.48;100.00;97555.94;20798766;28;20046;-71
2023/01/17 08:39:58;;;;;;;12.65;5.55;;;;;;;2.61;100.00;97577.94;20773243;28;20056;-70
2023/01/17 08:49:59;;;;;;;11.73;4.57;;;;;;;2.73;100.00;97580.19;20782387;28;20046;-71
2023/01/17 09:00:01;;;;;;;11.38;4.32;;;;;;;2.79;100.00;97577.41;20800197;28;20048;-70
2023/01/17 09:10:02;;;;;;;8.85;4.55;;;;;;;3.08;100.00;97562.75;20797685;28;20413;-71
2023/01/17 09:20:03;;;;;;;11.13;4.55;;;;;;;3.27;100.00;97555.25;20806626;23;20042;-81
2023/01/17 09:30:05;;;;;;;11.02;4.55;;;;;;;3.38;100.00;97553.16;20697539;28;20491;-80
2023/01/17 09:40:06;;;;;;;17.33;4.28;;;;;;;3.51;100.00;97556.19;20715360;28;20049;-81
2023/01/17 09:50:07;;;;;;;10.50;3.47;;;;;;;3.53;100.00;97556.97;20731784;28;20042;-80
2023/01/17 10:00:11;;;;;;;9.25;3.88;;;;;;;3.58;100.00;97552.50;20693506;28;20076;-79
2023/01/17 10:10:12;;;;;;;7.88;4.22;;;;;;;4.01;100.00;97558.78;20716487;28;20785;-81
2023/01/17 10:20:14;;;;;;;9.98;2.65;;;;;;;4.24;100.00;97525.16;20687700;28;20140;-79
2023/01/17 10:30:15;;;;;;;7.78;2.03;;;;;;;4.32;100.00;97528.31;20684908;28;20461;-79
2023/01/17 10:40:17;;;;;;;6.40;2.00;;;;;;;4.70;100.00;97502.72;20678414;28;20424;-79
2023/01/17 10:50:19;;;;;;;6.47;1.52;;;;;;;4.82;100.00;97502.22;20682153;28;20486;-79
2023/01/17 11:00:21;;;;;;;7.57;1.80;;;;;;;4.77;100.00;97488.59;20688283;28;20104;-78
2023/01/17 11:10:22;;;;;;;8.02;1.70;;;;;;;4.74;100.00;97482.69;20679239;28;20061;-78
2023/01/17 11:20:24;;;;;;;9.60;2.65;;;;;;;4.69;100.00;97464.72;20689628;28;20049;-78
2023/01/17 11:30:28;;;;;;;7.45;2.45;;;;;;;4.86;100.00;97449.38;20697914;28;20046;-80
2023/01/17 11:40:29;;;;;;;4.57;2.00;;;;;;;4.88;100.00;97429.41;20676753;28;20062;-78
2023/01/17 11:50:31;;;;;;;7.78;2.47;;;;;;;4.78;100.00;97428.09;20678043;28;20809;-78
2023/01/17 12:00:32;;;;;;;9.93;2.63;;;;;;;5.06;100.00;97403.63;20701729;28;20065;-78
2023/01/17 12:10:33;;;;;;;5.25;1.70;;;;;;;4.89;100.00;97387.03;20715603;28;20554;-78
2023/01/17 12:20:35;;;;;;;6.18;2.20;;;;;;;5.29;100.00;97381.91;20682978;28;20054;-78
2023/01/17 12:30:36;;;;;;;5.45;1.75;;;;;;;5.15;100.00;97338.41;20701615;28;20050;-78
2023/01/17 12:40:37;;;;;;;4.25;1.48;;;;;;;5.23;100.00;97302.63;20708888;28;20062;-79
2023/01/17 12:50:39;;;;;;;6.18;1.50;;;;;;;5.34;100.00;97282.22;20678942;28;20065;-79
2023/01/17 13:00:40;;;;;;;5.35;1.58;;;;;;;5.03;100.00;97274.97;20650613;28;20074;-79
2023/01/17 13:10:42;;;;;;;5.35;2.05;;;;;;;4.85;100.00;97273.16;20623189;28;20073;-79
2023/01/17 13:20:43;;;;;;;8.32;2.95;;;;;;;4.88;100.00;97284.22;20634858;28;20137;-78
2023/01/17 13:30:44;;;;;;;8.10;2.50;;;;;;;4.89;100.00;97285.94;20627570;28;20707;-79
2023/01/17 13:40:46;;;;;;;8.90;2.83;;;;;;;4.89;100.00;97282.50;20643507;28;20051;-79
2023/01/17 13:50:47;;;;;;;7.38;2.53;;;;;;;4.77;100.00;97286.44;20659709;28;20412;-79
2023/01/17 14:00:49;;;;;;;7.70;2.92;;;;;;;4.69;100.00;97277.31;20642735;28;20109;-79
2023/01/17 14:10:50;;;;;;;8.38;2.72;;;;;;;4.49;100.00;97280.72;20651582;28;20117;-79
2023/01/17 14:20:52;;;;;;;5.93;2.33;;;;;;;4.45;100.00;97307.66;20681045;28;20141;-79
2023/01/17 14:30:54;;;;;;;7.88;2.83;;;;;;;4.32;100.00;97310.75;20653599;28;20057;-79
2023/01/17 14:40:56;;;;;;;14.52;4.60;;;;;;;4.33;100.00;97309.84;20666265;28;20051;-79
2023/01/17 14:50:58;;;;;;;8.75;2.90;;;;;;;4.32;100.00;97310.75;20654920;28;20121;-79
2023/01/17 15:01:00;;;;;;;45.75;16.05;;;;;;;4.25;100.00;97303.28;20597409;28;20051;-79
2023/01/17 15:11:04;;;;;;;28.42;8.13;;;;;;;4.23;100.00;97303.38;20636679;28;20089;-79
2023/01/17 15:21:05;;;;;;;12.90;6.47;;;;;;;4.18;100.00;97297.53;20627926;28;20058;-78
2023/01/17 15:31:07;;;;;;;17.77;10.95;;;;;;;3.97;100.00;97300.94;20678292;28;20718;-78
2023/01/17 15:41:09;;;;;;;8.75;3.30;;;;;;;3.92;100.00;97306.28;20663233;28;20729;-79
2023/01/17 15:51:10;;;;;;;10.27;3.35;;;;;;;3.87;100.00;97303.03;20643184;28;20515;-77
2023/01/17 16:01:11;;;;;;;11.70;3.83;;;;;;;3.73;100.00;97315.66;20682931;28;20050;-80
2023/01/17 16:11:14;;;;;;;10.55;4.50;;;;;;;3.59;100.00;97316.19;20690483;28;20495;-80
2023/01/17 16:21:15;;;;;;;10.15;4.65;;;;;;;3.55;100.00;97322.41;20707631;22;20616;-69
2023/01/17 16:31:17;;;;;;;14.70;5.57;;;;;;;3.49;100.00;97307.06;20796402;22;20104;-71
2023/01/17 16:41:18;;;;;;;14.13;4.65;;;;;;;3.32;100.00;97300.78;20780447;28;20068;-72
2023/01/17 16:51:19;;;;;;;9.93;4.60;;;;;;;3.33;100.00;97304.22;20778828;28;20096;-72
2023/01/17 17:01:21;;;;;;;8.65;3.85;;;;;;;3.26;100.00;97302.78;20776095;28;20041;-73
2023/01/17 17:11:23;;;;;;;10.48;4.30;;;;;;;3.22;100.00;97288.25;20770597;28;20081;-72
2023/01/17 17:21:24;;;;;;;12.52;4.20;;;;;;;3.14;100.00;97304.03;20779823;28;20041;-73
2023/01/17 17:31:26;;;;;;;14.10;4.57;;;;;;;3.22;100.00;97314.97;20767413;28;20132;-73
2023/01/17 17:41:27;;;;;;;16.85;7.63;;;;;;;3.24;100.00;97328.66;20774969;28;20097;-73
2023/01/17 17:51:28;;;;;;;16.60;6.95;;;;;;;3.20;100.00;97344.34;20764098;28;20076;-73
2023/01/17 18:01:30;;;;;;;11.43;5.00;;;;;;;3.12;100.00;97352.38;20772207;28;20510;-73
2023/01/17 18:11:31;;;;;;;11.18;4.22;;;;;;;3.14;100.00;97366.06;20762458;28;20478;-73
2023/01/17 18:21:33;;;;;;;12.10;4.28;;;;;;;3.14;100.00;97373.00;20766477;28;20560;-73
2023/01/17 18:31:34;;;;;;;14.60;5.82;;;;;;;3.10;100.00;97382.59;20759863;28;20053;-73
2023/01/17 18:41:35;;;;;;;12.63;5.55;;;;;;;3.18;100.00;97388.34;20764190;28;20061;-73
2023/01/17 18:51:37;;;;;;;14.43;6.45;;;;;;;3.06;100.00;97401.66;20760663;28;20123;-73
2023/01/17 19:01:40;;;;;;;11.93;4.90;;;;;;;3.07;100.00;97403.38;20751317;28;20111;-73
2023/01/17 19:11:43;;;;;;;11.40;5.20;;;;;;;3.04;100.00;97403.47;20761862;28;20113;-73
2023/01/17 19:21:45;;;;;;;16.25;7.30;;;;;;;3.00;100.00;97417.41;20746688;28;20408;-73
2023/01/17 19:31:46;;;;;;;14.55;6.47;;;;;;;3.03;100.00;97422.47;20761611;28;20053;-74
2023/01/17 19:41:47;;;;;;;10.77;5.03;;;;;;;3.11;100.00;97432.53;20743696;28;20054;-73
2023/01/17 19:51:49;;;;;;;10.77;4.22;;;;;;;3.14;100.00;97442.78;20754921;28;20081;-72
2023/01/17 20:01:50;;;;;;;11.75;4.10;;;;;;;3.13;100.00;97449.69;20752107;28;20096;-72
2023/01/17 20:11:52;;;;;;;8.90;3.92;;;;;;;2.90;100.00;97449.59;20751076;28;20116;-71
2023/01/17 20:21:53;;;;;;;11.77;3.90;;;;;;;2.75;100.00;97454.38;20768354;28;20046;-71
2023/01/17 20:31:55;;;;;;;17.77;5.18;;;;;;;2.53;100.00;97449.00;20765877;28;20050;-70
2023/01/17 20:41:56;;;;;;;14.15;4.80;;;;;;;2.43;100.00;97441.59;20774296;28;20119;-71
2023/01/17 20:51:59;;;;;;;14.43;6.60;;;;;;;2.30;100.00;97449.75;20763657;28;20396;-72
2023/01/17 21:02:00;;;;;;;23.15;6.88;;;;;;;2.20;100.00;97453.47;20772474;28;20056;-72
2023/01/17 21:12:02;;;;;;;16.15;6.57;;;;;;;2.20;100.00;97444.88;20759255;28;20474;-72
2023/01/17 21:22:04;;;;;;;21.38;6.28;;;;;;;2.05;100.00;97454.75;20769044;28;20058;-71
2023/01/17 21:32:07;;;;;;;13.20;4.90;;;;;;;1.89;100.00;97457.84;20757983;28;20646;-71
2023/01/17 21:42:08;;;;;;;20.50;6.35;;;;;;;1.76;100.00;97467.63;20767682;28;20060;-73
2023/01/17 22:02:11;;;;;;;23.65;7.25;;;;;;;1.51;100.00;97480.34;20763719;28;20057;-72
2023/01/17 22:12:12;;;;;;;22.55;7.97;;;;;;;1.11;100.00;97483.97;20761019;28;20186;-72
2023/01/17 22:22:13;;;;;;;22.05;8.10;;;;;;;1.13;100.00;97495.06;20762323;28;20058;-72
2023/01/17 22:32:15;;;;;;;23.17;8.45;;;;;;;1.01;100.00;97501.38;20819843;23;20127;-74
2023/01/17 22:42:16;;;;;;;25.85;6.63;;;;;;;0.86;100.00;97503.44;20802136;28;20406;-76
2023/01/17 22:52:17;;;;;;;21.33;6.60;;;;;;;0.75;100.00;97509.69;20800227;28;20103;-76
2023/01/17 23:02:19;;;;;;;19.88;6.70;;;;;;;0.67;100.00;97506.47;20801621;28;20049;-75
2023/01/17 23:12:20;;;;;;;20.00;6.45;;;;;;;0.51;100.00;97510.25;20802215;28;20045;-74
2023/01/17 23:22:21;;;;;;;21.25;7.43;;;;;;;0.34;100.00;97512.38;20801456;28;20049;-74
2023/01/17 23:32:23;;;;;;;15.98;6.43;;;;;;;0.34;100.00;97507.22;20801328;28;20532;-73
2023/01/17 23:52:44;;;;;;;19.63;7.47;;;;;;;0.41;100.00;97504.47;20813974;28;20080;-74
